KBIL/BIL METAR and TAF weather

Enter ICAO airport designator
Station Type Date Time Source
KBIL METAR 2019/02/23 16:53 UTC NOAA

KBIL 231653Z 23012KT 10SM FEW080 SCT150 BKN200 M06/M13 A2993 RMK AO2 SLP183 T10611133


Station Type Date Time Source
KBIL Decoded METAR 2019/02/23 16:53 UTC NOAA

LOGAN INTERNATIONAL AIRPORT, MT, United States (KBIL) 45-49N 108-33W 1091M
Feb 23, 2019 - 11:53 AM EST / 2019.02.23 1653 UTC
Wind: from the SW (230 degrees) at 14 MPH (12 KT):0
Visibility: 10 mile(s):0
Sky conditions: mostly cloudy
Temperature: 21.0 F (-6.1 C)
Windchill: 8 F (-13 C):1
Dew Point: 8.1 F (-13.3 C)
Relative Humidity: 56%
Pressure (altimeter): 29.93 in. Hg (1013 hPa)
ob: KBIL 231653Z 23012KT 10SM FEW080 SCT150 BKN200 M06/M13 A2993 RMK AO2 SLP183 T10611133
cycle: 17

Station Type Date Time Source
KBIL TAF 2019/02/23 12:28 UTC NOAA

TAF KBIL 231126Z 2312/2412 23009KT P6SM SCT100 BKN200
FM231600 24013KT P6SM VCSH BKN060 OVC080
FM232100 32015G21KT P6SM -SHSN SCT020 OVC060
FM232300 03015KT 2SM -SN BR BKN025 OVC050
FM240600 02007KT P6SM OVC025


Example: see airport list